createdAt,value
2022-11-26T00:00:22.273Z,9.03
2022-11-26T00:03:11.111Z,12.37
2022-11-26T00:06:00.969Z,10.53
2022-11-26T00:08:49.368Z,9.90
2022-11-26T00:11:37.767Z,9.97
2022-11-26T00:14:26.139Z,10.53
2022-11-26T00:17:14.890Z,10.93
2022-11-26T00:20:03.264Z,10.97
2022-11-26T00:22:55.376Z,11.77
2022-11-26T00:25:45.832Z,9.73
2022-11-26T00:28:35.800Z,10.77
2022-11-26T00:31:24.591Z,8.10
2022-11-26T00:34:13.031Z,7.47
2022-11-26T00:37:01.432Z,9.67
2022-11-26T00:39:51.406Z,9.10
2022-11-26T00:42:39.805Z,12.83
2022-11-26T00:45:29.594Z,9.33
2022-11-26T00:48:19.116Z,8.03
2022-11-26T00:51:07.779Z,9.47
2022-11-26T00:53:57.343Z,10.13
2022-11-26T00:56:47.283Z,12.03
2022-11-26T00:59:35.679Z,14.13
2022-11-26T01:02:24.088Z,12.50
2022-11-26T01:05:12.543Z,10.13
2022-11-26T01:08:03.529Z,8.50
2022-11-26T01:10:51.904Z,11.20
2022-11-26T01:13:41.678Z,13.83
2022-11-26T01:16:31.701Z,9.10
2022-11-26T01:19:20.144Z,11.23
2022-11-26T01:22:14.829Z,9.70
2022-11-26T01:25:03.283Z,15.67
2022-11-26T01:27:51.679Z,12.27
2022-11-26T01:30:42.112Z,10.40
2022-11-26T01:33:30.486Z,10.23
2022-11-26T01:36:23.710Z,9.43
2022-11-26T01:39:16.005Z,7.87
2022-11-26T01:42:07.411Z,8.03
2022-11-26T01:44:55.810Z,9.10
2022-11-26T01:47:48.469Z,7.30
2022-11-26T01:51:03.699Z,12.63
2022-11-26T01:53:53.870Z,9.73
2022-11-26T01:56:44.316Z,10.03
2022-11-26T01:59:34.720Z,9.50
2022-11-26T02:02:24.192Z,8.90
2022-11-26T02:05:19.244Z,11.13
2022-11-26T02:08:07.764Z,11.77
2022-11-26T02:10:56.257Z,12.47
2022-11-26T02:13:45.315Z,12.20
2022-11-26T02:16:57.831Z,9.93
2022-11-26T02:20:27.332Z,15.37
2022-11-26T02:24:01.044Z,13.13
2022-11-26T02:27:35.010Z,13.27
2022-11-26T02:30:24.789Z,12.13
2022-11-26T02:33:16.783Z,10.70
2022-11-26T02:36:10.916Z,9.90
2022-11-26T02:39:05.978Z,12.80
2022-11-26T02:41:56.165Z,11.03
2022-11-26T02:44:45.640Z,15.00
2022-11-26T02:47:35.399Z,10.43
2022-11-26T02:50:26.304Z,14.03
2022-11-26T02:53:15.496Z,11.10
2022-11-26T02:56:07.952Z,11.63
2022-11-26T02:58:56.442Z,16.07
2022-11-26T03:01:48.032Z,12.80
2022-11-26T03:04:41.114Z,11.97
2022-11-26T03:07:30.224Z,9.87
2022-11-26T03:10:20.288Z,13.73
2022-11-26T03:13:08.743Z,9.97
2022-11-26T03:15:57.254Z,12.20
2022-11-26T03:18:46.259Z,10.87
2022-11-26T03:21:36.035Z,10.90
2022-11-26T03:24:24.593Z,12.10
2022-11-26T03:27:13.018Z,8.37
2022-11-26T03:30:01.479Z,14.30
2022-11-26T03:32:49.878Z,8.33
2022-11-26T03:35:38.329Z,9.83
2022-11-26T03:38:28.190Z,13.87
2022-11-26T03:41:16.606Z,11.90
2022-11-26T03:44:05.277Z,12.90
2022-11-26T03:46:53.682Z,10.50
2022-11-26T03:49:42.100Z,13.57
2022-11-26T03:52:30.487Z,11.83
2022-11-26T03:55:20.429Z,13.20
2022-11-26T03:58:08.878Z,8.33
2022-11-26T04:00:57.412Z,9.87
2022-11-26T04:03:45.854Z,11.10
2022-11-26T04:06:34.511Z,10.40
2022-11-26T04:09:22.993Z,9.93
2022-11-26T04:12:12.743Z,13.13
2022-11-26T04:15:01.306Z,11.80
2022-11-26T04:17:49.710Z,8.47
2022-11-26T04:20:38.143Z,12.90
2022-11-26T04:23:26.618Z,10.30
2022-11-26T04:26:15.017Z,9.97
2022-11-26T04:29:04.849Z,8.43
2022-11-26T04:31:53.326Z,11.77
2022-11-26T04:34:41.779Z,10.60
2022-11-26T04:37:30.241Z,11.40
2022-11-26T04:40:18.705Z,11.03
2022-11-26T04:43:07.090Z,8.87
2022-11-26T04:45:56.935Z,11.73
2022-11-26T04:48:45.542Z,12.47
2022-11-26T04:51:33.945Z,9.77
2022-11-26T04:54:22.338Z,10.63
2022-11-26T04:57:10.723Z,10.77
2022-11-26T04:59:59.317Z,9.67
2022-11-26T05:02:49.150Z,9.23
2022-11-26T05:05:37.709Z,9.43
2022-11-26T05:08:26.118Z,11.00
2022-11-26T05:11:14.525Z,8.33
2022-11-26T05:14:02.950Z,10.77
2022-11-26T05:16:51.427Z,14.77
2022-11-26T05:19:41.206Z,11.87
2022-11-26T05:22:29.649Z,11.53
2022-11-26T05:25:18.282Z,12.17
2022-11-26T05:28:06.849Z,11.77
2022-11-26T05:30:59.809Z,9.97
2022-11-26T05:33:48.218Z,10.10
2022-11-26T05:36:38.001Z,6.80
2022-11-26T05:39:26.570Z,12.40
2022-11-26T05:42:15.319Z,9.17
2022-11-26T05:45:03.839Z,10.53
2022-11-26T05:47:52.212Z,12.60
2022-11-26T05:50:40.625Z,14.17
2022-11-26T05:53:30.813Z,7.23
2022-11-26T05:56:19.284Z,13.20
2022-11-26T05:59:07.777Z,8.57
2022-11-26T06:01:56.334Z,11.90
2022-11-26T06:04:44.796Z,8.43
2022-11-26T06:07:33.298Z,8.47
2022-11-26T06:10:23.250Z,12.80
2022-11-26T06:13:11.675Z,9.23
2022-11-26T06:16:00.238Z,9.50
2022-11-26T06:18:48.715Z,10.50
2022-11-26T06:21:37.119Z,9.50
2022-11-26T06:24:25.509Z,7.93
2022-11-26T06:27:15.219Z,10.47
2022-11-26T06:30:04.686Z,8.50
2022-11-26T06:32:53.084Z,9.47
2022-11-26T06:35:41.537Z,11.40
2022-11-26T06:38:29.950Z,10.33
2022-11-26T06:41:18.346Z,9.67
2022-11-26T06:44:08.130Z,7.30
2022-11-26T06:46:56.746Z,13.30
2022-11-26T06:49:45.157Z,8.83
2022-11-26T06:52:33.687Z,10.43
2022-11-26T06:55:22.212Z,7.27
2022-11-26T06:58:10.832Z,11.20
2022-11-26T07:01:00.993Z,14.87
2022-11-26T07:03:43.319Z,9.57
2022-11-26T07:06:18.311Z,14.13
2022-11-26T07:08:46.644Z,10.97
2022-11-26T07:11:14.882Z,13.27
2022-11-26T07:13:43.227Z,12.97
2022-11-26T07:16:13.454Z,13.63
2022-11-26T07:18:41.891Z,7.37
2022-11-26T07:21:11.400Z,8.73
2022-11-26T07:23:39.791Z,11.13
2022-11-26T07:26:08.301Z,10.03
2022-11-26T07:28:36.688Z,10.37
2022-11-26T07:31:09.140Z,12.80
2022-11-26T07:33:41.450Z,8.90
2022-11-26T07:36:13.541Z,8.93
2022-11-26T07:38:42.855Z,9.93
2022-11-26T07:41:13.138Z,10.60
2022-11-26T07:43:42.508Z,13.50
2022-11-26T07:46:13.173Z,9.20
2022-11-26T07:48:42.891Z,12.60
2022-11-26T07:51:17.703Z,10.57
2022-11-26T07:53:45.999Z,11.50
2022-11-26T07:56:14.340Z,9.40
2022-11-26T07:58:42.695Z,7.37
2022-11-26T08:01:12.011Z,10.80
2022-11-26T08:03:41.950Z,9.93
2022-11-26T08:06:11.772Z,11.87
2022-11-26T08:08:40.273Z,8.50
2022-11-26T08:11:14.945Z,7.43
2022-11-26T08:13:43.443Z,8.97
2022-11-26T08:16:12.015Z,9.57
2022-11-26T08:18:41.956Z,6.70
2022-11-26T08:21:10.228Z,5.30
2022-11-26T08:23:38.548Z,6.87
2022-11-26T08:26:29.134Z,5.33
2022-11-26T08:28:56.522Z,5.60
2022-11-26T08:31:27.670Z,8.17
2022-11-26T08:33:59.057Z,7.17
2022-11-26T08:36:27.472Z,6.90
2022-11-26T08:38:55.849Z,7.67
2022-11-26T08:41:24.514Z,9.27
2022-11-26T08:44:08.697Z,6.97
2022-11-26T08:46:37.568Z,6.60
2022-11-26T08:49:07.790Z,7.93
2022-11-26T08:51:36.093Z,9.17
2022-11-26T08:54:04.847Z,8.87
2022-11-26T08:56:34.324Z,6.23
2022-11-26T08:59:02.725Z,6.10
2022-11-26T09:01:32.569Z,6.23
2022-11-26T09:04:05.612Z,5.50
2022-11-26T09:06:37.608Z,6.83
2022-11-26T09:10:37.764Z,5.13
2022-11-26T09:13:06.080Z,8.47
2022-11-26T09:15:34.452Z,6.60
2022-11-26T09:18:03.787Z,8.00
2022-11-26T09:20:32.168Z,8.33
2022-11-26T09:23:00.547Z,9.43
2022-11-26T09:25:28.844Z,7.63
2022-11-26T09:27:58.540Z,9.27
2022-11-26T09:30:26.840Z,10.77
2022-11-26T09:32:55.030Z,8.87
2022-11-26T09:35:23.311Z,8.63
2022-11-26T09:37:51.918Z,10.80
2022-11-26T09:40:20.357Z,12.97
2022-11-26T09:42:53.788Z,8.93
2022-11-26T09:45:39.058Z,12.90
2022-11-26T09:48:12.180Z,9.80
2022-11-26T09:50:40.460Z,9.60
2022-11-26T09:53:14.701Z,8.83
2022-11-26T09:55:44.617Z,12.43
2022-11-26T09:58:14.516Z,12.03
2022-11-26T10:00:45.561Z,8.23
2022-11-26T10:03:15.631Z,8.80
2022-11-26T10:05:51.832Z,7.57
2022-11-26T10:09:04.577Z,9.77
2022-11-26T10:11:36.029Z,11.90
2022-11-26T10:14:19.630Z,14.43
2022-11-26T10:16:56.230Z,11.60
2022-11-26T10:19:28.056Z,10.77
2022-11-26T10:21:59.131Z,11.33
2022-11-26T10:24:30.349Z,11.67
2022-11-26T10:26:59.794Z,14.43
2022-11-26T10:29:29.344Z,12.80
2022-11-26T10:32:01.522Z,14.03
2022-11-26T10:34:39.393Z,12.77
2022-11-26T10:37:07.825Z,15.90
2022-11-26T10:39:35.937Z,13.77
2022-11-26T10:42:07.266Z,13.57
2022-11-26T10:44:37.747Z,14.93
2022-11-26T10:47:27.740Z,14.13
2022-11-26T10:49:56.902Z,11.40
2022-11-26T10:52:28.027Z,14.13
2022-11-26T10:55:21.249Z,19.13
2022-11-26T10:57:52.665Z,13.10
2022-11-26T11:00:33.834Z,15.03
2022-11-26T11:03:03.869Z,15.07
2022-11-26T11:05:32.065Z,13.10
2022-11-26T11:08:00.267Z,14.50
2022-11-26T11:10:28.519Z,12.70
2022-11-26T11:13:11.402Z,16.30
2022-11-26T11:15:40.369Z,14.83
2022-11-26T11:18:18.009Z,13.37
2022-11-26T11:20:53.079Z,14.27
2022-11-26T11:23:34.812Z,16.30
2022-11-26T11:26:11.807Z,14.67
2022-11-26T11:28:42.744Z,16.30
2022-11-26T11:31:13.961Z,13.87
2022-11-26T11:33:43.582Z,19.33
2022-11-26T11:36:21.373Z,14.33
2022-11-26T11:38:51.273Z,19.37
2022-11-26T11:41:27.590Z,15.53
2022-11-26T11:44:01.294Z,13.57
2022-11-26T11:47:14.574Z,13.83
2022-11-26T11:50:17.800Z,14.63
2022-11-26T11:52:55.130Z,16.23
2022-11-26T11:55:29.824Z,17.10
2022-11-26T11:58:31.885Z,16.17
2022-11-26T12:01:04.127Z,23.83
2022-11-26T12:04:31.961Z,20.00
2022-11-26T12:07:36.772Z,26.57
2022-11-26T12:10:15.105Z,21.77
2022-11-26T12:12:45.605Z,17.33
2022-11-26T12:15:18.935Z,19.20
2022-11-26T12:17:49.118Z,17.40
2022-11-26T12:20:22.660Z,16.97
2022-11-26T12:22:57.982Z,22.37
2022-11-26T12:25:35.147Z,18.20
2022-11-26T12:28:07.999Z,20.53
2022-11-26T12:30:46.859Z,18.87
2022-11-26T12:33:17.725Z,19.03
2022-11-26T12:35:50.083Z,16.37
2022-11-26T12:38:24.130Z,17.03
2022-11-26T12:40:55.077Z,15.60
2022-11-26T12:43:26.881Z,14.73
2022-11-26T12:45:59.444Z,15.60
2022-11-26T12:48:36.839Z,15.13
2022-11-26T12:51:14.978Z,18.00
2022-11-26T12:53:47.053Z,17.63
2022-11-26T12:56:18.820Z,14.43
2022-11-26T12:58:54.825Z,11.43
2022-11-26T13:01:24.119Z,17.03
2022-11-26T13:04:08.419Z,17.17
2022-11-26T13:06:52.554Z,16.90
2022-11-26T13:09:31.733Z,15.23
2022-11-26T13:12:06.491Z,18.67
2022-11-26T13:14:39.819Z,15.90
2022-11-26T13:17:13.275Z,15.93
2022-11-26T13:19:43.886Z,13.97
2022-11-26T13:22:46.393Z,12.53
2022-11-26T13:25:52.408Z,16.67
2022-11-26T13:28:30.730Z,17.80
2022-11-26T13:31:20.039Z,26.97
2022-11-26T13:34:27.314Z,36.37
2022-11-26T13:37:11.780Z,16.73
2022-11-26T13:40:04.505Z,19.87
2022-11-26T13:42:46.302Z,15.80
2022-11-26T13:45:50.501Z,15.23
2022-11-26T13:48:20.629Z,12.17
2022-11-26T13:50:50.498Z,13.77
2022-11-26T13:53:26.481Z,37.37
2022-11-26T13:55:56.492Z,14.33
2022-11-26T13:58:28.417Z,18.07
2022-11-26T14:00:56.605Z,15.27
2022-11-26T14:03:49.513Z,16.27
2022-11-26T14:06:17.688Z,15.33
2022-11-26T14:08:47.113Z,14.17
2022-11-26T14:11:57.128Z,13.73
2022-11-26T14:14:39.580Z,15.17
2022-11-26T14:17:19.842Z,15.67
2022-11-26T14:20:11.796Z,15.30
2022-11-26T14:22:40.079Z,17.73
2022-11-26T14:25:11.435Z,16.63
2022-11-26T14:27:42.931Z,17.07
2022-11-26T14:30:24.791Z,13.97
2022-11-26T14:33:15.106Z,11.97
2022-11-26T14:35:44.388Z,15.10
2022-11-26T14:38:24.861Z,13.33
2022-11-26T14:40:59.144Z,12.33
2022-11-26T14:43:27.740Z,13.37
2022-11-26T14:46:06.818Z,12.80
2022-11-26T14:48:36.924Z,11.50
2022-11-26T14:51:07.234Z,16.43
2022-11-26T14:53:35.487Z,14.93
2022-11-26T14:56:04.210Z,18.37
2022-11-26T14:58:35.034Z,17.00
2022-11-26T15:01:08.376Z,16.67
2022-11-26T15:03:36.649Z,12.87
2022-11-26T15:06:04.979Z,13.77
2022-11-26T15:08:33.171Z,16.60
2022-11-26T15:11:02.894Z,10.97
2022-11-26T15:13:33.794Z,9.10
2022-11-26T15:16:05.158Z,11.83
2022-11-26T15:18:35.219Z,10.60
2022-11-26T15:21:06.073Z,13.70
2022-11-26T15:23:36.486Z,14.07
2022-11-26T15:26:04.644Z,13.77
2022-11-26T15:28:38.229Z,14.93
2022-11-26T15:31:08.920Z,12.20
2022-11-26T15:33:38.068Z,13.97
2022-11-26T15:36:08.155Z,9.17
2022-11-26T15:38:39.139Z,9.47
2022-11-26T15:41:08.730Z,10.13
2022-11-26T15:43:38.162Z,13.57
2022-11-26T15:46:13.400Z,9.70
2022-11-26T15:48:54.171Z,11.10
2022-11-26T15:51:24.261Z,11.77
2022-11-26T15:53:52.556Z,10.37
2022-11-26T15:56:23.261Z,10.37
2022-11-26T15:58:54.263Z,11.83
2022-11-26T16:01:25.585Z,10.53
2022-11-26T16:03:54.327Z,12.47
2022-11-26T16:06:29.374Z,10.57
2022-11-26T16:09:00.533Z,9.37
2022-11-26T16:11:31.047Z,7.60
2022-11-26T16:13:59.162Z,10.47
2022-11-26T16:16:28.671Z,11.90
2022-11-26T16:18:59.751Z,9.00
2022-11-26T16:21:29.678Z,10.93
2022-11-26T16:24:00.897Z,10.13
2022-11-26T16:26:29.615Z,10.90
2022-11-26T16:28:57.906Z,10.73
2022-11-26T16:31:26.107Z,11.33
2022-11-26T16:33:55.680Z,17.20
2022-11-26T16:36:25.746Z,11.23
2022-11-26T16:38:53.958Z,12.03
2022-11-26T16:41:23.318Z,8.87
2022-11-26T16:43:51.555Z,8.50
2022-11-26T16:46:23.312Z,7.50
2022-11-26T16:48:51.845Z,9.83
2022-11-26T16:51:21.511Z,9.47
2022-11-26T16:53:49.708Z,11.80
2022-11-26T16:56:21.354Z,9.77
2022-11-26T16:58:49.583Z,6.30
2022-11-26T17:01:17.731Z,8.43
2022-11-26T17:03:45.934Z,8.67
2022-11-26T17:06:16.474Z,9.83
2022-11-26T17:08:49.719Z,10.27
2022-11-26T17:11:18.582Z,9.70
2022-11-26T17:13:46.728Z,14.23
2022-11-26T17:16:16.210Z,15.57
2022-11-26T17:18:44.539Z,16.27
2022-11-26T17:21:12.742Z,15.67
2022-11-26T17:23:40.907Z,10.23
2022-11-26T17:26:18.808Z,12.27
2022-11-26T17:28:47.217Z,12.40
2022-11-26T17:31:15.560Z,13.10
2022-11-26T17:33:43.891Z,11.73
2022-11-26T17:36:16.835Z,9.77
2022-11-26T17:38:45.379Z,12.97
2022-11-26T17:41:15.026Z,10.30
2022-11-26T17:43:43.258Z,9.10
2022-11-26T17:46:18.114Z,8.30
2022-11-26T17:48:46.361Z,12.07
2022-11-26T17:51:14.861Z,9.27
2022-11-26T17:53:43.261Z,7.10
2022-11-26T17:56:18.080Z,11.07
2022-11-26T17:58:46.474Z,9.90
2022-11-26T18:01:14.733Z,8.33
2022-11-26T18:03:43.078Z,12.30
2022-11-26T18:06:15.525Z,9.77
2022-11-26T18:08:43.794Z,9.43
2022-11-26T18:11:13.968Z,12.83
2022-11-26T18:13:43.531Z,11.97
2022-11-26T18:16:11.805Z,10.53
2022-11-26T18:18:40.073Z,9.43
2022-11-26T18:21:08.264Z,13.03
2022-11-26T18:23:36.416Z,15.43
2022-11-26T18:26:04.543Z,10.30
2022-11-26T18:28:32.650Z,13.33
2022-11-26T18:31:02.191Z,14.47
2022-11-26T18:33:30.468Z,11.97
2022-11-26T18:35:58.585Z,12.43
2022-11-26T18:38:29.087Z,10.00
2022-11-26T18:41:02.173Z,9.23
2022-11-26T18:43:30.361Z,10.30
2022-11-26T18:45:58.684Z,10.17
2022-11-26T18:48:28.215Z,15.53
2022-11-26T18:50:59.855Z,21.97
2022-11-26T18:53:28.136Z,19.83
2022-11-26T18:55:56.493Z,23.20
2022-11-26T18:58:25.263Z,15.10
2022-11-26T19:00:58.342Z,15.53
2022-11-26T19:03:28.268Z,22.13
2022-11-26T19:05:56.464Z,20.37
2022-11-26T19:08:24.638Z,25.83
2022-11-26T19:10:52.736Z,24.63
2022-11-26T19:13:20.842Z,15.70
2022-11-26T19:15:49.673Z,15.00
2022-11-26T19:18:17.827Z,11.10
2022-11-26T19:20:52.861Z,14.70
2022-11-26T19:23:24.380Z,15.03
2022-11-26T19:25:52.530Z,16.67
2022-11-26T19:28:20.712Z,14.07
2022-11-26T19:31:01.642Z,15.47
2022-11-26T19:33:29.932Z,13.00
2022-11-26T19:35:59.547Z,11.77
2022-11-26T19:38:27.735Z,11.00
2022-11-26T19:40:57.557Z,14.73
2022-11-26T19:43:26.173Z,10.67
2022-11-26T19:46:01.726Z,11.37
2022-11-26T19:48:29.835Z,13.40
2022-11-26T19:50:59.304Z,14.33
2022-11-26T19:53:27.475Z,11.47
2022-11-26T19:55:58.006Z,14.67
2022-11-26T19:58:26.215Z,11.07
2022-11-26T20:00:54.543Z,11.10
2022-11-26T20:03:23.196Z,12.50
2022-11-26T20:05:51.434Z,14.10
2022-11-26T20:08:21.048Z,16.03
2022-11-26T20:10:50.108Z,13.23
2022-11-26T20:13:18.372Z,14.63
2022-11-26T20:15:47.426Z,12.07
2022-11-26T20:18:15.862Z,15.07
2022-11-26T20:20:44.026Z,14.93
2022-11-26T20:23:12.147Z,13.07
2022-11-26T20:25:41.642Z,15.47
2022-11-26T20:28:10.459Z,16.37
2022-11-26T20:30:38.976Z,12.83
2022-11-26T20:33:07.614Z,12.43
2022-11-26T20:35:35.820Z,12.80
2022-11-26T20:38:03.941Z,13.33
2022-11-26T20:40:32.112Z,14.63
2022-11-26T20:43:01.655Z,13.87
2022-11-26T20:45:29.790Z,13.03
2022-11-26T20:47:58.052Z,17.00
2022-11-26T20:50:26.316Z,13.90
2022-11-26T20:52:54.747Z,10.50
2022-11-26T20:55:23.579Z,16.03
2022-11-26T20:57:52.023Z,14.20
2022-11-26T21:00:27.214Z,11.87
